Terminal Aerodrome Forecast
Issued by NWS

Home | Current Version | Previous Version | Text Only | Print | Product List | Glossary On
Versions: 1 2 3 4 5 6 7 8 9 10 11 12 13 14 15 16 17
000
FTAK31 PAJN 080119 AAA
TAFAYA
TAF AMD
PAYA 080119Z 0801/0824 09008KT 5SM -SN SCT025 OVC040
      TEMPO 0801/0805 2SM -SHSN BKN015 OVC025
     FM080600 09010G15KT 2SM -SN BR BKN015 OVC025
      TEMPO 0809/0813 06010KT 1/2SM SN FZFG VV002
     FM081600 06010KT P6SM -SHSN BKN015 OVC025
     FM082100 06010KT P6SM SCT015 OVC025
     FM082300 06010KT P6SM SCT030 SCT060
      AMD LTD TO CLD VIS AND WIND 0801/0809=

USA.gov is the U.S. government's official web portal to all federal, state and local government web resources and services.